N63 weather

Meadow Brook Field
Walnut Cove, North Carolina, United States

Public forecast

Using degrees Fahrenheit for public forecast. Weather courtesy of forecast.io.

METAR (pilot weather report)

Closest report is Smith Reynolds Airport, 10.7 nm (19.8 km) SSW. Retrieved 2019/07/22 10:54 UTC (29 minutes ago):

KINT 221054Z 22005KT 10SM CLR 25/21 A2998 RMK AO2 SLP139 T02500206

TAF (pilot weather forecast)

Closest forecast is Smith Reynolds Airport, 10.7 nm (19.8 km) SSW. Retrieved 2019/07/22 06:27 UTC (5 hours ago):

TAF KINT 220524Z 2206/2306 22008KT P6SM FEW050 BKN250 FM221500 24012G18KT P6SM SCT250 FM221800 22013G23KT P6SM SCT050 BKN250 PROB30 2220/2224 VRB15G30KT 2SM TSRA BKN030CB FM230000 23007KT P6SM VCSH BKN080 PROB30 2303/2306 4SM -TSRA BKN050CB